sensor_id;sensor_type;location;lat;lon;timestamp;temperature;humidity
4520;DHT22;2272;49.226;8.108;2023-02-11T00:01:44;1.20;99.90
4520;DHT22;2272;49.226;8.108;2023-02-11T00:04:10;1.20;99.90
4520;DHT22;2272;49.226;8.108;2023-02-11T00:06:37;1.20;99.90
4520;DHT22;2272;49.226;8.108;2023-02-11T00:09:04;1.30;99.90
4520;DHT22;2272;49.226;8.108;2023-02-11T00:11:32;1.30;99.90
4520;DHT22;2272;49.226;8.108;2023-02-11T00:14:01;1.40;99.90
4520;DHT22;2272;49.226;8.108;2023-02-11T00:16:28;1.40;99.90
4520;DHT22;2272;49.226;8.108;2023-02-11T00:18:58;1.50;99.90
4520;DHT22;2272;49.226;8.108;2023-02-11T00:21:26;1.50;99.90
4520;DHT22;2272;49.226;8.108;2023-02-11T00:23:53;1.50;99.90
4520;DHT22;2272;49.226;8.108;2023-02-11T00:26:23;1.60;99.90
4520;DHT22;2272;49.226;8.108;2023-02-11T00:28:52;1.70;99.90
4520;DHT22;2272;49.226;8.108;2023-02-11T00:31:20;1.80;99.90
4520;DHT22;2272;49.226;8.108;2023-02-11T00:33:47;1.90;99.90
4520;DHT22;2272;49.226;8.108;2023-02-11T00:36:16;1.90;99.90
4520;DHT22;2272;49.226;8.108;2023-02-11T00:38:44;1.90;99.90
4520;DHT22;2272;49.226;8.108;2023-02-11T00:41:11;1.90;99.90
4520;DHT22;2272;49.226;8.108;2023-02-11T00:43:38;1.90;99.90
4520;DHT22;2272;49.226;8.108;2023-02-11T00:46:07;1.90;99.90
4520;DHT22;2272;49.226;8.108;2023-02-11T00:48:34;1.90;99.90
4520;DHT22;2272;49.226;8.108;2023-02-11T00:51:01;1.90;99.90
4520;DHT22;2272;49.226;8.108;2023-02-11T00:53:28;1.80;99.90
4520;DHT22;2272;49.226;8.108;2023-02-11T00:55:55;1.90;99.90
4520;DHT22;2272;49.226;8.108;2023-02-11T00:58:22;1.90;99.90
4520;DHT22;2272;49.226;8.108;2023-02-11T01:00:48;1.90;99.90
4520;DHT22;2272;49.226;8.108;2023-02-11T01:03:16;1.90;99.90
4520;DHT22;2272;49.226;8.108;2023-02-11T01:05:43;1.80;99.90
4520;DHT22;2272;49.226;8.108;2023-02-11T01:08:10;1.70;99.90
4520;DHT22;2272;49.226;8.108;2023-02-11T01:10:36;1.70;99.90
4520;DHT22;2272;49.226;8.108;2023-02-11T01:13:03;1.60;99.90
4520;DHT22;2272;49.226;8.108;2023-02-11T01:15:31;1.60;99.90
4520;DHT22;2272;49.226;8.108;2023-02-11T01:17:58;1.60;99.90
4520;DHT22;2272;49.226;8.108;2023-02-11T01:20:27;1.50;99.90
4520;DHT22;2272;49.226;8.108;2023-02-11T01:22:54;1.50;99.90
4520;DHT22;2272;49.226;8.108;2023-02-11T01:25:20;1.40;99.90
4520;DHT22;2272;49.226;8.108;2023-02-11T01:27:47;1.40;99.90
4520;DHT22;2272;49.226;8.108;2023-02-11T01:30:14;1.30;99.90
4520;DHT22;2272;49.226;8.108;2023-02-11T01:32:40;1.20;99.90
4520;DHT22;2272;49.226;8.108;2023-02-11T01:35:07;1.20;99.90
4520;DHT22;2272;49.226;8.108;2023-02-11T01:37:36;1.20;99.90
4520;DHT22;2272;49.226;8.108;2023-02-11T01:40:05;1.20;99.90
4520;DHT22;2272;49.226;8.108;2023-02-11T01:42:32;1.10;99.90
4520;DHT22;2272;49.226;8.108;2023-02-11T01:45:00;1.10;99.90
4520;DHT22;2272;49.226;8.108;2023-02-11T01:47:27;1.10;99.90
4520;DHT22;2272;49.226;8.108;2023-02-11T01:49:56;1.10;99.90
4520;DHT22;2272;49.226;8.108;2023-02-11T01:52:26;1.10;99.90
4520;DHT22;2272;49.226;8.108;2023-02-11T01:54:58;1.10;99.90
4520;DHT22;2272;49.226;8.108;2023-02-11T01:57:45;1.00;99.90
4520;DHT22;2272;49.226;8.108;2023-02-11T02:00:17;1.00;99.90
4520;DHT22;2272;49.226;8.108;2023-02-11T02:02:49;0.90;99.90
4520;DHT22;2272;49.226;8.108;2023-02-11T02:05:24;0.80;99.90
4520;DHT22;2272;49.226;8.108;2023-02-11T02:07:59;0.70;99.90
4520;DHT22;2272;49.226;8.108;2023-02-11T02:10:30;0.70;99.90
4520;DHT22;2272;49.226;8.108;2023-02-11T02:12:59;0.60;99.90
4520;DHT22;2272;49.226;8.108;2023-02-11T02:15:28;0.60;99.90
4520;DHT22;2272;49.226;8.108;2023-02-11T02:18:27;0.50;99.90
4520;DHT22;2272;49.226;8.108;2023-02-11T02:21:30;0.50;99.90
4520;DHT22;2272;49.226;8.108;2023-02-11T02:24:15;0.50;99.90
4520;DHT22;2272;49.226;8.108;2023-02-11T02:27:04;0.60;99.90
4520;DHT22;2272;49.226;8.108;2023-02-11T02:30:07;0.50;99.90
4520;DHT22;2272;49.226;8.108;2023-02-11T02:32:49;0.50;99.90
4520;DHT22;2272;49.226;8.108;2023-02-11T02:35:28;0.40;99.90
4520;DHT22;2272;49.226;8.108;2023-02-11T02:38:00;0.30;99.90
4520;DHT22;2272;49.226;8.108;2023-02-11T02:40:31;0.30;99.90
4520;DHT22;2272;49.226;8.108;2023-02-11T02:42:59;0.30;99.90
4520;DHT22;2272;49.226;8.108;2023-02-11T02:45:27;0.40;99.90
4520;DHT22;2272;49.226;8.108;2023-02-11T02:47:55;0.50;99.90
4520;DHT22;2272;49.226;8.108;2023-02-11T02:50:28;0.60;99.90
4520;DHT22;2272;49.226;8.108;2023-02-11T02:53:06;0.70;99.90
4520;DHT22;2272;49.226;8.108;2023-02-11T02:55:47;0.90;99.90
4520;DHT22;2272;49.226;8.108;2023-02-11T02:58:36;1.00;99.90
4520;DHT22;2272;49.226;8.108;2023-02-11T03:01:11;1.20;99.90
4520;DHT22;2272;49.226;8.108;2023-02-11T03:03:48;1.30;99.90
4520;DHT22;2272;49.226;8.108;2023-02-11T03:06:27;1.40;99.90
4520;DHT22;2272;49.226;8.108;2023-02-11T03:08:58;1.40;99.90
4520;DHT22;2272;49.226;8.108;2023-02-11T03:11:28;1.40;99.90
4520;DHT22;2272;49.226;8.108;2023-02-11T03:13:55;1.40;99.90
4520;DHT22;2272;49.226;8.108;2023-02-11T03:16:25;1.30;99.90
4520;DHT22;2272;49.226;8.108;2023-02-11T03:18:58;1.30;99.90
4520;DHT22;2272;49.226;8.108;2023-02-11T03:21:28;1.20;99.90
4520;DHT22;2272;49.226;8.108;2023-02-11T03:24:00;1.10;99.90
4520;DHT22;2272;49.226;8.108;2023-02-11T03:26:33;1.00;99.90
4520;DHT22;2272;49.226;8.108;2023-02-11T03:29:05;1.00;99.90
4520;DHT22;2272;49.226;8.108;2023-02-11T03:31:36;0.80;99.90
4520;DHT22;2272;49.226;8.108;2023-02-11T03:34:10;0.70;99.90
4520;DHT22;2272;49.226;8.108;2023-02-11T03:36:41;0.70;99.90
4520;DHT22;2272;49.226;8.108;2023-02-11T03:39:12;0.60;99.90
4520;DHT22;2272;49.226;8.108;2023-02-11T03:41:41;0.60;99.90
4520;DHT22;2272;49.226;8.108;2023-02-11T03:44:12;0.60;99.90
4520;DHT22;2272;49.226;8.108;2023-02-11T03:46:43;0.50;99.90
4520;DHT22;2272;49.226;8.108;2023-02-11T03:49:17;0.60;99.90
4520;DHT22;2272;49.226;8.108;2023-02-11T03:51:44;0.80;99.90
4520;DHT22;2272;49.226;8.108;2023-02-11T03:54:16;0.90;99.90
4520;DHT22;2272;49.226;8.108;2023-02-11T03:56:50;1.10;99.90
4520;DHT22;2272;49.226;8.108;2023-02-11T03:59:17;1.20;99.90
4520;DHT22;2272;49.226;8.108;2023-02-11T04:01:44;1.30;99.90
4520;DHT22;2272;49.226;8.108;2023-02-11T04:04:11;1.40;99.90
4520;DHT22;2272;49.226;8.108;2023-02-11T04:06:39;1.40;99.90
4520;DHT22;2272;49.226;8.108;2023-02-11T04:09:06;1.40;99.90
4520;DHT22;2272;49.226;8.108;2023-02-11T04:11:33;1.30;99.90
4520;DHT22;2272;49.226;8.108;2023-02-11T04:14:00;1.30;99.90
4520;DHT22;2272;49.226;8.108;2023-02-11T04:16:27;1.40;99.90
4520;DHT22;2272;49.226;8.108;2023-02-11T04:18:55;1.30;99.90
4520;DHT22;2272;49.226;8.108;2023-02-11T04:21:22;1.30;99.90
4520;DHT22;2272;49.226;8.108;2023-02-11T04:23:50;1.30;99.90
4520;DHT22;2272;49.226;8.108;2023-02-11T04:26:16;1.30;99.90
4520;DHT22;2272;49.226;8.108;2023-02-11T04:28:43;1.30;99.90
4520;DHT22;2272;49.226;8.108;2023-02-11T04:31:10;1.40;99.90
4520;DHT22;2272;49.226;8.108;2023-02-11T04:33:37;1.40;99.90
4520;DHT22;2272;49.226;8.108;2023-02-11T04:36:04;1.50;99.90
4520;DHT22;2272;49.226;8.108;2023-02-11T04:38:31;1.50;99.90
4520;DHT22;2272;49.226;8.108;2023-02-11T04:40:59;1.40;99.90
4520;DHT22;2272;49.226;8.108;2023-02-11T04:43:25;1.40;99.90
4520;DHT22;2272;49.226;8.108;2023-02-11T04:45:55;1.40;99.90
4520;DHT22;2272;49.226;8.108;2023-02-11T04:48:22;1.40;99.90
4520;DHT22;2272;49.226;8.108;2023-02-11T04:50:49;1.50;99.90
4520;DHT22;2272;49.226;8.108;2023-02-11T04:53:15;1.50;99.90
4520;DHT22;2272;49.226;8.108;2023-02-11T04:55:42;1.50;99.90
4520;DHT22;2272;49.226;8.108;2023-02-11T04:58:10;1.50;99.90
4520;DHT22;2272;49.226;8.108;2023-02-11T05:00:37;1.50;99.90
4520;DHT22;2272;49.226;8.108;2023-02-11T05:03:03;1.50;99.90
4520;DHT22;2272;49.226;8.108;2023-02-11T05:05:30;1.50;99.90
4520;DHT22;2272;49.226;8.108;2023-02-11T05:07:57;1.50;99.90
4520;DHT22;2272;49.226;8.108;2023-02-11T05:10:23;1.50;99.90
4520;DHT22;2272;49.226;8.108;2023-02-11T05:12:50;1.50;99.90
4520;DHT22;2272;49.226;8.108;2023-02-11T05:15:18;1.50;99.90
4520;DHT22;2272;49.226;8.108;2023-02-11T05:17:45;1.40;99.90
4520;DHT22;2272;49.226;8.108;2023-02-11T05:20:12;1.30;99.90
4520;DHT22;2272;49.226;8.108;2023-02-11T05:22:39;1.20;99.90
4520;DHT22;2272;49.226;8.108;2023-02-11T05:25:06;1.10;99.90
4520;DHT22;2272;49.226;8.108;2023-02-11T05:27:33;1.10;99.90
4520;DHT22;2272;49.226;8.108;2023-02-11T05:29:59;1.00;99.90
4520;DHT22;2272;49.226;8.108;2023-02-11T05:32:27;0.90;99.90
4520;DHT22;2272;49.226;8.108;2023-02-11T05:34:54;0.80;99.90
4520;DHT22;2272;49.226;8.108;2023-02-11T05:37:21;0.80;99.90
4520;DHT22;2272;49.226;8.108;2023-02-11T05:39:47;0.80;99.90
4520;DHT22;2272;49.226;8.108;2023-02-11T05:42:14;0.80;99.90
4520;DHT22;2272;49.226;8.108;2023-02-11T05:44:41;0.80;99.90
4520;DHT22;2272;49.226;8.108;2023-02-11T05:47:08;0.80;99.90
4520;DHT22;2272;49.226;8.108;2023-02-11T05:49:36;0.80;99.90
4520;DHT22;2272;49.226;8.108;2023-02-11T05:52:03;0.80;99.90
4520;DHT22;2272;49.226;8.108;2023-02-11T05:54:29;0.80;99.90
4520;DHT22;2272;49.226;8.108;2023-02-11T05:56:56;0.80;99.90
4520;DHT22;2272;49.226;8.108;2023-02-11T05:59:23;0.70;99.90
4520;DHT22;2272;49.226;8.108;2023-02-11T06:01:49;0.70;99.90
4520;DHT22;2272;49.226;8.108;2023-02-11T06:04:16;0.60;99.90
4520;DHT22;2272;49.226;8.108;2023-02-11T06:06:44;0.60;99.90
4520;DHT22;2272;49.226;8.108;2023-02-11T06:09:11;0.60;99.90
4520;DHT22;2272;49.226;8.108;2023-02-11T06:11:38;0.60;99.90
4520;DHT22;2272;49.226;8.108;2023-02-11T06:14:04;0.60;99.90
4520;DHT22;2272;49.226;8.108;2023-02-11T06:16:31;0.60;99.90
4520;DHT22;2272;49.226;8.108;2023-02-11T06:18:58;0.60;99.90
4520;DHT22;2272;49.226;8.108;2023-02-11T06:21:24;0.60;99.90
4520;DHT22;2272;49.226;8.108;2023-02-11T06:23:52;0.60;99.90
4520;DHT22;2272;49.226;8.108;2023-02-11T06:26:21;0.60;99.90
4520;DHT22;2272;49.226;8.108;2023-02-11T06:28:48;0.60;99.90
4520;DHT22;2272;49.226;8.108;2023-02-11T06:31:15;0.70;99.90
4520;DHT22;2272;49.226;8.108;2023-02-11T06:33:42;0.70;99.90
4520;DHT22;2272;49.226;8.108;2023-02-11T06:36:13;0.60;99.90
4520;DHT22;2272;49.226;8.108;2023-02-11T06:38:41;0.60;99.90
4520;DHT22;2272;49.226;8.108;2023-02-11T06:41:10;0.70;99.90
4520;DHT22;2272;49.226;8.108;2023-02-11T06:43:37;0.70;99.90
4520;DHT22;2272;49.226;8.108;2023-02-11T06:46:05;0.70;99.90
4520;DHT22;2272;49.226;8.108;2023-02-11T06:48:32;0.70;99.90
4520;DHT22;2272;49.226;8.108;2023-02-11T06:51:00;0.70;99.90
4520;DHT22;2272;49.226;8.108;2023-02-11T06:53:28;0.70;99.90
4520;DHT22;2272;49.226;8.108;2023-02-11T06:55:54;0.60;99.90
4520;DHT22;2272;49.226;8.108;2023-02-11T06:58:23;0.60;99.90
4520;DHT22;2272;49.226;8.108;2023-02-11T07:00:49;0.60;99.90
4520;DHT22;2272;49.226;8.108;2023-02-11T07:03:16;0.60;99.90
4520;DHT22;2272;49.226;8.108;2023-02-11T07:05:43;0.60;99.90
4520;DHT22;2272;49.226;8.108;2023-02-11T07:08:10;0.70;99.90
4520;DHT22;2272;49.226;8.108;2023-02-11T07:10:36;0.70;99.90
4520;DHT22;2272;49.226;8.108;2023-02-11T07:13:03;0.80;99.90
4520;DHT22;2272;49.226;8.108;2023-02-11T07:15:31;0.80;99.90
4520;DHT22;2272;49.226;8.108;2023-02-11T07:17:58;0.80;99.90
4520;DHT22;2272;49.226;8.108;2023-02-11T07:20:25;0.80;99.90
4520;DHT22;2272;49.226;8.108;2023-02-11T07:22:51;0.80;99.90
4520;DHT22;2272;49.226;8.108;2023-02-11T07:25:18;0.80;99.90
4520;DHT22;2272;49.226;8.108;2023-02-11T07:27:45;0.80;99.90
4520;DHT22;2272;49.226;8.108;2023-02-11T07:30:12;0.80;99.90
4520;DHT22;2272;49.226;8.108;2023-02-11T07:32:41;0.80;99.90
4520;DHT22;2272;49.226;8.108;2023-02-11T07:35:07;0.80;99.90
4520;DHT22;2272;49.226;8.108;2023-02-11T07:37:34;0.80;99.90
4520;DHT22;2272;49.226;8.108;2023-02-11T07:40:02;0.80;99.90
4520;DHT22;2272;49.226;8.108;2023-02-11T07:42:29;0.70;99.90
4520;DHT22;2272;49.226;8.108;2023-02-11T07:44:55;0.80;99.90
4520;DHT22;2272;49.226;8.108;2023-02-11T07:47:22;0.80;99.90
4520;DHT22;2272;49.226;8.108;2023-02-11T07:49:50;0.90;99.90
4520;DHT22;2272;49.226;8.108;2023-02-11T07:52:17;1.00;99.90
4520;DHT22;2272;49.226;8.108;2023-02-11T07:54:43;1.10;99.90
4520;DHT22;2272;49.226;8.108;2023-02-11T07:57:10;1.20;99.90
4520;DHT22;2272;49.226;8.108;2023-02-11T07:59:37;1.40;99.90
4520;DHT22;2272;49.226;8.108;2023-02-11T08:02:04;1.50;99.90
4520;DHT22;2272;49.226;8.108;2023-02-11T08:04:30;1.60;99.90
4520;DHT22;2272;49.226;8.108;2023-02-11T08:06:58;1.70;99.90
4520;DHT22;2272;49.226;8.108;2023-02-11T08:09:25;1.80;99.90
4520;DHT22;2272;49.226;8.108;2023-02-11T08:11:52;1.90;99.90
4520;DHT22;2272;49.226;8.108;2023-02-11T08:14:18;1.90;99.90
4520;DHT22;2272;49.226;8.108;2023-02-11T08:16:45;2.00;99.90
4520;DHT22;2272;49.226;8.108;2023-02-11T08:19:13;2.20;99.90
4520;DHT22;2272;49.226;8.108;2023-02-11T08:21:41;2.30;99.90
4520;DHT22;2272;49.226;8.108;2023-02-11T08:24:10;2.40;99.90
4520;DHT22;2272;49.226;8.108;2023-02-11T08:26:37;2.50;99.90
4520;DHT22;2272;49.226;8.108;2023-02-11T08:29:07;2.60;99.90
4520;DHT22;2272;49.226;8.108;2023-02-11T08:31:36;2.70;99.90
4520;DHT22;2272;49.226;8.108;2023-02-11T08:34:04;2.90;99.90
4520;DHT22;2272;49.226;8.108;2023-02-11T08:36:33;3.00;99.90
4520;DHT22;2272;49.226;8.108;2023-02-11T08:39:03;3.10;99.90
4520;DHT22;2272;49.226;8.108;2023-02-11T08:41:31;3.20;99.90
4520;DHT22;2272;49.226;8.108;2023-02-11T08:43:58;3.30;99.90
4520;DHT22;2272;49.226;8.108;2023-02-11T08:46:25;3.50;99.90
4520;DHT22;2272;49.226;8.108;2023-02-11T08:48:52;3.50;99.90
4520;DHT22;2272;49.226;8.108;2023-02-11T08:51:21;3.70;99.90
4520;DHT22;2272;49.226;8.108;2023-02-11T08:53:48;3.80;99.90
4520;DHT22;2272;49.226;8.108;2023-02-11T08:56:17;3.90;99.90
4520;DHT22;2272;49.226;8.108;2023-02-11T08:58:46;4.00;99.90
4520;DHT22;2272;49.226;8.108;2023-02-11T09:01:15;4.00;99.90
4520;DHT22;2272;49.226;8.108;2023-02-11T09:03:42;4.10;99.90
4520;DHT22;2272;49.226;8.108;2023-02-11T09:06:11;4.20;99.90
4520;DHT22;2272;49.226;8.108;2023-02-11T09:08:40;4.40;99.90
4520;DHT22;2272;49.226;8.108;2023-02-11T09:11:08;4.50;99.90
4520;DHT22;2272;49.226;8.108;2023-02-11T09:13:35;4.60;99.90
4520;DHT22;2272;49.226;8.108;2023-02-11T09:16:04;4.80;99.90
4520;DHT22;2272;49.226;8.108;2023-02-11T09:18:31;5.00;99.90
4520;DHT22;2272;49.226;8.108;2023-02-11T09:21:01;5.10;99.90
4520;DHT22;2272;49.226;8.108;2023-02-11T09:23:28;5.30;99.90
4520;DHT22;2272;49.226;8.108;2023-02-11T09:25:54;5.40;99.90
4520;DHT22;2272;49.226;8.108;2023-02-11T09:28:21;5.60;99.90
4520;DHT22;2272;49.226;8.108;2023-02-11T09:30:48;5.80;99.90
4520;DHT22;2272;49.226;8.108;2023-02-11T09:33:16;5.80;99.90
4520;DHT22;2272;49.226;8.108;2023-02-11T09:35:42;5.90;99.90
4520;DHT22;2272;49.226;8.108;2023-02-11T09:38:09;6.00;99.90
4520;DHT22;2272;49.226;8.108;2023-02-11T09:40:36;6.10;99.90
4520;DHT22;2272;49.226;8.108;2023-02-11T09:43:11;6.10;99.90
4520;DHT22;2272;49.226;8.108;2023-02-11T09:45:42;6.30;99.90
4520;DHT22;2272;49.226;8.108;2023-02-11T09:48:13;6.50;99.90
4520;DHT22;2272;49.226;8.108;2023-02-11T09:50:44;6.70;99.90
4520;DHT22;2272;49.226;8.108;2023-02-11T09:53:18;6.90;99.90
4520;DHT22;2272;49.226;8.108;2023-02-11T09:55:49;7.10;99.90
4520;DHT22;2272;49.226;8.108;2023-02-11T09:58:26;7.30;99.90
4520;DHT22;2272;49.226;8.108;2023-02-11T10:01:01;7.30;99.90
4520;DHT22;2272;49.226;8.108;2023-02-11T10:03:42;7.40;99.90
4520;DHT22;2272;49.226;8.108;2023-02-11T10:06:36;7.50;99.90
4520;DHT22;2272;49.226;8.108;2023-02-11T10:09:15;7.50;99.90
4520;DHT22;2272;49.226;8.108;2023-02-11T10:11:49;7.60;99.90
4520;DHT22;2272;49.226;8.108;2023-02-11T10:14:28;7.80;99.90
4520;DHT22;2272;49.226;8.108;2023-02-11T10:17:08;8.00;99.90
4520;DHT22;2272;49.226;8.108;2023-02-11T10:19:59;8.20;99.90
4520;DHT22;2272;49.226;8.108;2023-02-11T10:22:33;8.40;99.90
4520;DHT22;2272;49.226;8.108;2023-02-11T10:25:11;8.40;99.90
4520;DHT22;2272;49.226;8.108;2023-02-11T10:27:42;8.50;99.90
4520;DHT22;2272;49.226;8.108;2023-02-11T10:30:18;8.60;99.90
4520;DHT22;2272;49.226;8.108;2023-02-11T10:32:48;8.60;99.90
4520;DHT22;2272;49.226;8.108;2023-02-11T10:35:18;8.50;99.90
4520;DHT22;2272;49.226;8.108;2023-02-11T10:37:47;8.40;99.90
4520;DHT22;2272;49.226;8.108;2023-02-11T10:40:17;8.30;99.90
4520;DHT22;2272;49.226;8.108;2023-02-11T10:42:47;8.20;99.90
4520;DHT22;2272;49.226;8.108;2023-02-11T10:45:18;8.10;99.90
4520;DHT22;2272;49.226;8.108;2023-02-11T10:47:47;8.00;99.90
4520;DHT22;2272;49.226;8.108;2023-02-11T10:50:21;8.10;99.90
4520;DHT22;2272;49.226;8.108;2023-02-11T10:52:49;8.20;99.90
4520;DHT22;2272;49.226;8.108;2023-02-11T10:55:18;8.30;99.90
4520;DHT22;2272;49.226;8.108;2023-02-11T10:57:52;8.30;99.90
4520;DHT22;2272;49.226;8.108;2023-02-11T11:00:32;8.20;99.90
4520;DHT22;2272;49.226;8.108;2023-02-11T11:03:02;8.30;99.90
4520;DHT22;2272;49.226;8.108;2023-02-11T11:05:31;8.40;99.90
4520;DHT22;2272;49.226;8.108;2023-02-11T11:08:02;8.40;99.90
4520;DHT22;2272;49.226;8.108;2023-02-11T11:10:35;8.50;99.90
4520;DHT22;2272;49.226;8.108;2023-02-11T11:13:22;8.60;99.90
4520;DHT22;2272;49.226;8.108;2023-02-11T11:16:06;8.70;99.90
4520;DHT22;2272;49.226;8.108;2023-02-11T11:18:33;8.80;99.90
4520;DHT22;2272;49.226;8.108;2023-02-11T11:21:02;8.80;99.90
4520;DHT22;2272;49.226;8.108;2023-02-11T11:23:31;8.90;99.90
4520;DHT22;2272;49.226;8.108;2023-02-11T11:26:03;8.90;99.90
4520;DHT22;2272;49.226;8.108;2023-02-11T11:28:34;9.00;99.90
4520;DHT22;2272;49.226;8.108;2023-02-11T11:31:04;8.90;99.90
4520;DHT22;2272;49.226;8.108;2023-02-11T11:33:41;8.80;99.90
4520;DHT22;2272;49.226;8.108;2023-02-11T11:36:10;8.80;99.90
4520;DHT22;2272;49.226;8.108;2023-02-11T11:38:43;8.80;99.90
4520;DHT22;2272;49.226;8.108;2023-02-11T11:41:21;8.80;99.90
4520;DHT22;2272;49.226;8.108;2023-02-11T11:44:00;8.70;99.90
4520;DHT22;2272;49.226;8.108;2023-02-11T11:46:29;8.80;99.90
4520;DHT22;2272;49.226;8.108;2023-02-11T11:49:05;8.90;99.90
4520;DHT22;2272;49.226;8.108;2023-02-11T11:51:34;9.00;99.90
4520;DHT22;2272;49.226;8.108;2023-02-11T11:54:07;9.00;99.90
4520;DHT22;2272;49.226;8.108;2023-02-11T11:56:37;9.10;99.90
4520;DHT22;2272;49.226;8.108;2023-02-11T11:59:10;9.10;99.90
4520;DHT22;2272;49.226;8.108;2023-02-11T12:01:45;9.10;99.90
4520;DHT22;2272;49.226;8.108;2023-02-11T12:04:34;9.20;99.90
4520;DHT22;2272;49.226;8.108;2023-02-11T12:07:14;9.40;99.90
4520;DHT22;2272;49.226;8.108;2023-02-11T12:09:53;9.70;99.90
4520;DHT22;2272;49.226;8.108;2023-02-11T12:12:34;9.90;99.90
4520;DHT22;2272;49.226;8.108;2023-02-11T12:15:18;10.10;99.90
4520;DHT22;2272;49.226;8.108;2023-02-11T12:18:02;10.40;99.90
4520;DHT22;2272;49.226;8.108;2023-02-11T12:20:37;10.60;99.90
4520;DHT22;2272;49.226;8.108;2023-02-11T12:23:27;10.70;99.90
4520;DHT22;2272;49.226;8.108;2023-02-11T12:26:02;10.70;99.90
4520;DHT22;2272;49.226;8.108;2023-02-11T12:28:37;10.80;99.90
4520;DHT22;2272;49.226;8.108;2023-02-11T12:31:16;10.90;99.90
4520;DHT22;2272;49.226;8.108;2023-02-11T12:34:07;10.90;99.90
4520;DHT22;2272;49.226;8.108;2023-02-11T12:36:44;10.90;99.90
4520;DHT22;2272;49.226;8.108;2023-02-11T12:39:31;11.00;99.90
4520;DHT22;2272;49.226;8.108;2023-02-11T12:45:18;11.40;99.90
4520;DHT22;2272;49.226;8.108;2023-02-11T12:47:55;11.70;99.90
4520;DHT22;2272;49.226;8.108;2023-02-11T12:50:31;11.80;99.90
4520;DHT22;2272;49.226;8.108;2023-02-11T12:53:22;11.90;99.90
4520;DHT22;2272;49.226;8.108;2023-02-11T12:55:56;12.00;99.90
4520;DHT22;2272;49.226;8.108;2023-02-11T12:58:27;11.90;99.90
4520;DHT22;2272;49.226;8.108;2023-02-11T13:01:01;11.80;99.90
4520;DHT22;2272;49.226;8.108;2023-02-11T13:03:35;11.80;99.90
4520;DHT22;2272;49.226;8.108;2023-02-11T13:06:06;11.80;99.90
4520;DHT22;2272;49.226;8.108;2023-02-11T13:08:36;11.80;99.90
4520;DHT22;2272;49.226;8.108;2023-02-11T13:11:07;11.70;99.90
4520;DHT22;2272;49.226;8.108;2023-02-11T13:13:41;11.70;99.90
4520;DHT22;2272;49.226;8.108;2023-02-11T13:16:18;11.60;99.90
4520;DHT22;2272;49.226;8.108;2023-02-11T13:18:50;11.60;99.90
4520;DHT22;2272;49.226;8.108;2023-02-11T13:21:35;11.50;99.90
4520;DHT22;2272;49.226;8.108;2023-02-11T13:24:12;11.50;99.90
4520;DHT22;2272;49.226;8.108;2023-02-11T13:26:46;11.50;99.90
4520;DHT22;2272;49.226;8.108;2023-02-11T13:29:25;11.40;99.90
4520;DHT22;2272;49.226;8.108;2023-02-11T13:32:05;11.30;99.90
4520;DHT22;2272;49.226;8.108;2023-02-11T13:34:57;11.20;99.90
4520;DHT22;2272;49.226;8.108;2023-02-11T13:37:25;11.10;99.90
4520;DHT22;2272;49.226;8.108;2023-02-11T13:40:01;11.00;99.90
4520;DHT22;2272;49.226;8.108;2023-02-11T13:42:29;11.00;99.90
4520;DHT22;2272;49.226;8.108;2023-02-11T13:44:57;11.00;99.90
4520;DHT22;2272;49.226;8.108;2023-02-11T13:47:31;11.20;99.90
4520;DHT22;2272;49.226;8.108;2023-02-11T13:49:59;11.20;99.90
4520;DHT22;2272;49.226;8.108;2023-02-11T13:52:29;11.30;99.90
4520;DHT22;2272;49.226;8.108;2023-02-11T13:55:04;11.40;99.90
4520;DHT22;2272;49.226;8.108;2023-02-11T13:57:35;11.60;99.90
4520;DHT22;2272;49.226;8.108;2023-02-11T14:03:37;11.90;99.90
4520;DHT22;2272;49.226;8.108;2023-02-11T14:06:25;12.00;99.90
4520;DHT22;2272;49.226;8.108;2023-02-11T14:09:37;12.10;99.90
4520;DHT22;2272;49.226;8.108;2023-02-11T14:12:32;12.10;99.90
4520;DHT22;2272;49.226;8.108;2023-02-11T14:15:01;12.10;99.90
4520;DHT22;2272;49.226;8.108;2023-02-11T14:17:36;12.20;99.90
4520;DHT22;2272;49.226;8.108;2023-02-11T14:20:34;12.20;99.90
4520;DHT22;2272;49.226;8.108;2023-02-11T14:23:02;12.30;99.90
4520;DHT22;2272;49.226;8.108;2023-02-11T14:25:29;12.20;99.90
4520;DHT22;2272;49.226;8.108;2023-02-11T14:28:02;12.30;99.90
4520;DHT22;2272;49.226;8.108;2023-02-11T14:30:43;12.30;99.90
4520;DHT22;2272;49.226;8.108;2023-02-11T14:36:21;12.20;99.90
4520;DHT22;2272;49.226;8.108;2023-02-11T14:38:59;12.10;99.90
4520;DHT22;2272;49.226;8.108;2023-02-11T14:41:31;11.90;99.90
4520;DHT22;2272;49.226;8.108;2023-02-11T14:44:03;11.70;99.90
4520;DHT22;2272;49.226;8.108;2023-02-11T14:46:32;11.40;99.90
4520;DHT22;2272;49.226;8.108;2023-02-11T14:49:01;11.20;99.90
4520;DHT22;2272;49.226;8.108;2023-02-11T14:51:32;11.10;99.90
4520;DHT22;2272;49.226;8.108;2023-02-11T14:54:06;10.70;99.90
4520;DHT22;2272;49.226;8.108;2023-02-11T14:56:37;10.50;99.90
4520;DHT22;2272;49.226;8.108;2023-02-11T14:59:16;10.30;99.90
4520;DHT22;2272;49.226;8.108;2023-02-11T15:01:45;10.20;99.90
4520;DHT22;2272;49.226;8.108;2023-02-11T15:04:32;10.10;99.90
4520;DHT22;2272;49.226;8.108;2023-02-11T15:07:05;10.00;99.90
4520;DHT22;2272;49.226;8.108;2023-02-11T15:09:37;10.00;99.90
4520;DHT22;2272;49.226;8.108;2023-02-11T15:12:08;9.90;99.90
4520;DHT22;2272;49.226;8.108;2023-02-11T15:14:45;9.80;99.90
4520;DHT22;2272;49.226;8.108;2023-02-11T15:17:14;9.70;99.90
4520;DHT22;2272;49.226;8.108;2023-02-11T15:19:45;9.50;99.90
4520;DHT22;2272;49.226;8.108;2023-02-11T15:22:18;9.30;99.90
4520;DHT22;2272;49.226;8.108;2023-02-11T15:24:57;9.10;99.90
4520;DHT22;2272;49.226;8.108;2023-02-11T15:27:24;9.00;99.90
4520;DHT22;2272;49.226;8.108;2023-02-11T15:29:51;8.90;99.90
4520;DHT22;2272;49.226;8.108;2023-02-11T15:32:20;8.70;99.90
4520;DHT22;2272;49.226;8.108;2023-02-11T15:34:48;8.60;99.90
4520;DHT22;2272;49.226;8.108;2023-02-11T15:37:19;8.60;99.90
4520;DHT22;2272;49.226;8.108;2023-02-11T15:39:47;8.50;99.90
4520;DHT22;2272;49.226;8.108;2023-02-11T15:42:18;8.40;99.90
4520;DHT22;2272;49.226;8.108;2023-02-11T15:44:46;8.40;99.90
4520;DHT22;2272;49.226;8.108;2023-02-11T15:47:18;8.30;99.90
4520;DHT22;2272;49.226;8.108;2023-02-11T15:49:46;8.20;99.90
4520;DHT22;2272;49.226;8.108;2023-02-11T15:52:14;8.10;99.90
4520;DHT22;2272;49.226;8.108;2023-02-11T15:54:48;8.00;99.90
4520;DHT22;2272;49.226;8.108;2023-02-11T15:57:16;8.00;99.90
4520;DHT22;2272;49.226;8.108;2023-02-11T15:59:47;8.00;99.90
4520;DHT22;2272;49.226;8.108;2023-02-11T16:02:17;7.90;99.90
4520;DHT22;2272;49.226;8.108;2023-02-11T16:04:49;7.80;99.90
4520;DHT22;2272;49.226;8.108;2023-02-11T16:07:41;7.80;99.90
4520;DHT22;2272;49.226;8.108;2023-02-11T16:10:23;7.80;99.90
4520;DHT22;2272;49.226;8.108;2023-02-11T16:12:52;7.70;99.90
4520;DHT22;2272;49.226;8.108;2023-02-11T16:15:42;7.70;99.90
4520;DHT22;2272;49.226;8.108;2023-02-11T16:18:27;7.60;99.90
4520;DHT22;2272;49.226;8.108;2023-02-11T16:20:55;7.60;99.90
4520;DHT22;2272;49.226;8.108;2023-02-11T16:23:24;7.60;99.90
4520;DHT22;2272;49.226;8.108;2023-02-11T16:26:00;7.50;99.90
4520;DHT22;2272;49.226;8.108;2023-02-11T16:28:27;7.50;99.90
4520;DHT22;2272;49.226;8.108;2023-02-11T16:30:55;7.40;99.90
4520;DHT22;2272;49.226;8.108;2023-02-11T16:33:22;7.40;99.90
4520;DHT22;2272;49.226;8.108;2023-02-11T16:35:49;7.30;99.90
4520;DHT22;2272;49.226;8.108;2023-02-11T16:38:16;7.30;99.90
4520;DHT22;2272;49.226;8.108;2023-02-11T16:40:43;7.30;99.90
4520;DHT22;2272;49.226;8.108;2023-02-11T16:43:18;7.30;99.90
4520;DHT22;2272;49.226;8.108;2023-02-11T16:45:45;7.30;99.90
4520;DHT22;2272;49.226;8.108;2023-02-11T16:48:15;7.30;99.90
4520;DHT22;2272;49.226;8.108;2023-02-11T16:50:44;7.20;99.90